Portada
METAR-TAF:

METAR-TAF

Aeropuertos :

Aeropuerto de Trondheim-Værnes

Trondheim, Noruega

latitud: 63-28N, longitud: 010-56E, altitud: 1 m

Observación

El informe se hizo hace 21 minutos, a las 17:20 UTC
Viento 6 kt del oeste-suroeste
Temperatura 21°C
Humedad 64%
Presión 1016 hPa
Visibilidad 10 km o más
sin nubes por debajo de 1500 m y sin presencia de cumulonimbus.

METAR: ENVA 231720Z 24006KT CAVOK 21/14 Q1016 NOSIG RMK WIND 670FT VRB01KT

Hora: 19:41 (17:41 UTC)

Pronóstico

Pronóstico válido del 23 a las 12 UTC al 24 a las 12 UTC
Viento 8 kt del oeste
Visibilidad 10 km o más
Escasas nubes a una altura de 2000 ft
Nubes dispersas a una altura de 4000 ft

TAF: ENVA 2312/2412 27008KT 9999 FEW020 SCT040

Observaciones y pronósticos meteorológicos de más de 4000 aeropuertos (mensajes METAR y TAF).

Los puntos amarillos y rojos representan las estaciones disponibles.

Ponga el ratón en el punto deseado para ver el nombre de la estación.

Haga clic para ver las observaciones y los pronósticos meteorológicos.

Para cambiar el mapa : haga clic en los botones verdes con una cruz de color negro para hacer un zoom, en el botón verde con un guión para alejar o en las flechas verdes para mapas adyacentes.


METAR-TAF: